Time;durP1;ratioP1;P1;durP2;ratioP2;P2;SDS_P1;SDS_P2;PMS_P1;PMS_P2;Temp;Humidity;BMP_temperature;BMP_pressure;BME280_temperature;BME280_humidity;BME280_pressure;Samples;Min_cycle;Max_cycle;Signal;HPM_P1;HPM_P2
2023/11/14 00:01:23;;;;;;;19.77;3.87;;;10.80;1.00;;;;;;5073809;28;20597;-81
2023/11/14 00:03:49;;;;;;;16.00;4.67;;;10.90;1.00;;;;;;5074492;28;20229;-80
2023/11/14 00:06:16;;;;;;;15.93;3.30;;;10.80;1.00;;;;;;5073833;28;20232;-81
2023/11/14 00:08:43;;;;;;;15.53;4.10;;;10.80;1.00;;;;;;5074206;28;20203;-83
2023/11/14 00:11:11;;;;;;;14.03;3.90;;;10.80;1.00;;;;;;5074175;28;20578;-81
2023/11/14 00:13:38;;;;;;;15.70;3.50;;;10.90;1.00;;;;;;5075918;28;20666;-82
2023/11/14 00:16:05;;;;;;;17.67;4.37;;;10.90;1.00;;;;;;5058478;28;20631;-80
2023/11/14 00:18:33;;;;;;;15.10;4.10;;;10.90;1.00;;;;;;5056094;28;20223;-82
2023/11/14 00:21:00;;;;;;;20.07;4.70;;;10.80;1.00;;;;;;5055690;28;20268;-84
2023/11/14 00:23:27;;;;;;;20.27;4.37;;;10.90;1.00;;;;;;5055257;28;20244;-81
2023/11/14 00:25:54;;;;;;;19.63;4.20;;;10.90;1.00;;;;;;5054651;28;20230;-79
2023/11/14 00:28:20;;;;;;;18.63;4.60;;;10.90;1.00;;;;;;5054542;28;20220;-84
2023/11/14 00:30:47;;;;;;;20.13;4.53;;;10.90;1.00;;;;;;5052497;28;20560;-82
2023/11/14 00:33:14;;;;;;;19.23;5.13;;;10.80;1.00;;;;;;5055019;28;20236;-83
2023/11/14 00:35:43;;;;;;;19.87;5.00;;;10.70;1.00;;;;;;5055127;28;20583;-84
2023/11/14 00:38:10;;;;;;;17.13;4.20;;;10.80;1.00;;;;;;5055166;28;20643;-81
2023/11/14 00:40:38;;;;;;;15.77;4.20;;;10.70;1.00;;;;;;5055632;28;20321;-84
2023/11/14 00:43:05;;;;;;;18.87;4.20;;;10.70;1.00;;;;;;5055229;28;20202;-82
2023/11/14 00:45:32;;;;;;;14.30;4.37;;;10.80;1.00;;;;;;5055448;28;20563;-83
2023/11/14 00:47:59;;;;;;;19.03;4.73;;;10.90;1.00;;;;;;5055871;28;20209;-83
2023/11/14 00:50:26;;;;;;;17.60;4.80;;;11.00;1.00;;;;;;5055867;28;20242;-81
2023/11/14 00:52:55;;;;;;;19.67;5.10;;;11.20;1.00;;;;;;5055663;28;20210;-81
2023/11/14 00:55:21;;;;;;;20.50;4.80;;;11.00;1.00;;;;;;5055944;28;20201;-83
2023/11/14 00:57:48;;;;;;;23.33;6.47;;;11.00;1.00;;;;;;5055561;28;20297;-80
2023/11/14 01:00:17;;;;;;;18.77;4.40;;;11.10;1.00;;;;;;5073515;28;20237;-82
2023/11/14 01:02:45;;;;;;;18.33;4.90;;;11.10;1.00;;;;;;5075810;28;20199;-81
2023/11/14 01:05:12;;;;;;;19.93;4.77;;;11.10;1.00;;;;;;5067043;28;20305;-80
2023/11/14 01:07:39;;;;;;;16.53;4.53;;;11.20;1.00;;;;;;5060243;28;20225;-82
2023/11/14 01:10:10;;;;;;;18.57;4.27;;;11.30;1.00;;;;;;5058309;28;20282;-82
2023/11/14 01:12:36;;;;;;;15.70;3.97;;;11.30;1.00;;;;;;5058441;28;20191;-82
2023/11/14 01:15:04;;;;;;;16.83;4.13;;;11.30;1.00;;;;;;5059058;28;20573;-82
2023/11/14 01:17:31;;;;;;;18.47;5.20;;;11.30;1.00;;;;;;5059295;28;20223;-83
2023/11/14 01:19:57;;;;;;;24.23;5.07;;;11.40;1.00;;;;;;5058965;28;20634;-84
2023/11/14 01:22:24;;;;;;;19.17;4.40;;;11.30;1.00;;;;;;5077990;28;20293;-83
2023/11/14 01:24:51;;;;;;;22.10;4.40;;;11.20;1.00;;;;;;5078864;28;20205;-84
2023/11/14 01:27:19;;;;;;;18.30;4.43;;;11.30;1.00;;;;;;5079381;28;20225;-82
2023/11/14 01:29:46;;;;;;;18.80;4.20;;;11.30;1.00;;;;;;5079662;28;20733;-81
2023/11/14 01:32:13;;;;;;;16.93;4.40;;;11.50;1.00;;;;;;5078542;28;20229;-81
2023/11/14 01:34:40;;;;;;;18.93;4.30;;;11.50;1.00;;;;;;5059300;28;20202;-81
2023/11/14 01:37:07;;;;;;;17.33;4.40;;;11.50;1.00;;;;;;5059505;28;20227;-82
2023/11/14 01:39:33;;;;;;;16.20;4.43;;;11.60;1.00;;;;;;5058738;28;20205;-82
2023/11/14 01:41:59;;;;;;;19.83;4.50;;;11.50;1.00;;;;;;5060002;28;20780;-81
2023/11/14 01:44:28;;;;;;;20.67;4.90;;;11.60;1.00;;;;;;5076378;28;20609;-82
2023/11/14 01:46:58;;;;;;;15.23;4.27;;;11.50;1.00;;;;;;5076902;28;20241;-82
2023/11/14 01:49:25;;;;;;;17.03;3.83;;;11.60;1.00;;;;;;5076613;28;20216;-81
2023/11/14 01:51:53;;;;;;;17.10;4.60;;;11.60;1.00;;;;;;5076990;28;20202;-82
2023/11/14 01:54:20;;;;;;;18.47;4.17;;;11.50;1.00;;;;;;5076715;28;20245;-79
2023/11/14 01:56:47;;;;;;;20.33;4.67;;;11.60;1.00;;;;;;5076537;28;20218;-82
2023/11/14 01:59:14;;;;;;;18.90;4.57;;;11.60;1.00;;;;;;5076494;28;20206;-81
2023/11/14 02:01:43;;;;;;;17.23;4.13;;;11.60;1.00;;;;;;5077516;28;20205;-85
2023/11/14 02:04:14;;;;;;;21.37;5.13;;;11.60;1.00;;;;;;5062023;28;20301;-85
2023/11/14 02:06:40;;;;;;;19.17;4.87;;;11.70;1.00;;;;;;5058433;28;20234;-82
2023/11/14 02:09:07;;;;;;;18.07;4.70;;;11.70;1.00;;;;;;5066345;28;20293;-82
2023/11/14 02:11:35;;;;;;;21.63;4.53;;;11.60;1.00;;;;;;5066961;28;20297;-85
2023/11/14 02:14:02;;;;;;;20.73;5.80;;;11.50;1.00;;;;;;5058213;28;20293;-81
2023/11/14 02:16:46;;;;;;;16.83;4.87;;;11.40;1.00;;;;;;5059112;28;20219;-83
2023/11/14 02:19:13;;;;;;;21.43;5.03;;;11.30;1.00;;;;;;5063333;28;20213;-85
2023/11/14 02:21:40;;;;;;;18.93;4.97;;;11.20;1.00;;;;;;5078927;28;20204;-84
2023/11/14 02:24:10;;;;;;;20.53;5.73;;;11.30;1.00;;;;;;5079097;28;20232;-84
2023/11/14 02:26:38;;;;;;;15.23;4.50;;;11.20;87.50;;;;;;5078359;28;20233;-82
2023/11/14 02:29:05;;;;;;;24.47;5.10;;;11.10;46.50;;;;;;5079090;28;20676;-83
2023/11/14 02:31:32;;;;;;;22.23;4.90;;;11.30;1.00;;;;;;5078742;28;20206;-82
2023/11/14 02:33:59;;;;;;;15.80;4.90;;;11.20;1.00;;;;;;5078983;28;20619;-81
2023/11/14 02:36:31;;;;;;;15.40;4.23;;;11.20;1.00;;;;;;5075866;28;20226;-82
2023/11/14 02:38:58;;;;;;;27.50;5.47;;;11.40;1.00;;;;;;5078158;28;20210;-81
2023/11/14 02:41:25;;;;;;;20.90;4.50;;;11.30;1.00;;;;;;5078251;28;20196;-82
2023/11/14 02:43:53;;;;;;;16.57;3.97;;;11.40;1.00;;;;;;5078748;28;20194;-80
2023/11/14 02:46:20;;;;;;;14.90;4.30;;;11.40;1.00;;;;;;5076922;28;20228;-82
2023/11/14 02:48:46;;;;;;;16.93;4.33;;;11.30;1.00;;;;;;5077658;28;20205;-83
2023/11/14 02:51:13;;;;;;;15.33;4.43;;;11.30;1.00;;;;;;5077977;28;20210;-83
2023/11/14 02:53:40;;;;;;;14.77;3.80;;;11.30;1.00;;;;;;5077924;28;20662;-83
2023/11/14 02:56:07;;;;;;;15.33;4.13;;;11.40;1.00;;;;;;5077352;28;20222;-84
2023/11/14 02:58:34;;;;;;;20.90;4.37;;;11.40;1.00;;;;;;5078028;28;20262;-83
2023/11/14 03:01:03;;;;;;;17.23;4.60;;;11.20;1.00;;;;;;5077682;28;20197;-84
2023/11/14 03:03:30;;;;;;;19.20;4.37;;;11.20;1.00;;;;;;5078189;28;20209;-83
2023/11/14 03:05:59;;;;;;;14.87;4.10;;;11.30;1.00;;;;;;5077745;28;20226;-81
2023/11/14 03:08:26;;;;;;;20.47;4.77;;;11.30;1.00;;;;;;5074196;28;20576;-84
2023/11/14 03:10:55;;;;;;;21.63;4.00;;;11.30;1.00;;;;;;5056746;28;20639;-83
2023/11/14 03:13:22;;;;;;;21.03;4.27;;;11.40;1.00;;;;;;5067277;28;20650;-82
2023/11/14 03:15:48;;;;;;;22.83;4.53;;;11.30;1.00;;;;;;5077520;28;20734;-83
2023/11/14 03:18:16;;;;;;;19.17;4.63;;;11.30;1.00;;;;;;5077868;28;20277;-85
2023/11/14 03:20:43;;;;;;;18.73;4.00;;;11.30;1.00;;;;;;5057920;28;20213;-84
2023/11/14 03:23:10;;;;;;;16.30;4.83;;;11.30;1.00;;;;;;5057461;28;20210;-83
2023/11/14 03:25:37;;;;;;;17.03;4.40;;;11.30;1.00;;;;;;5068481;28;20202;-84
2023/11/14 03:28:04;;;;;;;13.43;3.37;;;11.30;1.00;;;;;;5077655;28;20234;-82
2023/11/14 03:30:32;;;;;;;12.20;4.13;;;11.30;1.00;;;;;;5059514;28;20203;-83
2023/11/14 03:32:59;;;;;;;18.60;4.47;;;11.30;1.00;;;;;;5055109;28;20272;-85
2023/11/14 03:35:27;;;;;;;18.03;4.80;;;11.30;1.00;;;;;;5061717;28;20607;-84
2023/11/14 03:37:55;;;;;;;17.47;4.17;;;11.20;1.00;;;;;;5074549;28;20230;-81
2023/11/14 03:40:22;;;;;;;19.27;4.70;;;11.20;1.00;;;;;;5074519;28;20202;-83
2023/11/14 03:42:48;;;;;;;16.43;5.00;;;11.20;1.00;;;;;;5075106;28;20546;-83
2023/11/14 03:45:15;;;;;;;15.73;3.97;;;11.20;1.00;;;;;;5075326;28;20641;-83
2023/11/14 03:47:43;;;;;;;17.50;4.07;;;11.20;1.00;;;;;;5074292;28;20222;-87
2023/11/14 03:50:10;;;;;;;17.00;4.20;;;11.20;1.00;;;;;;5074780;28;20252;-86
2023/11/14 03:52:38;;;;;;;18.23;4.40;;;11.10;1.00;;;;;;5056647;28;20210;-86
2023/11/14 03:55:06;;;;;;;14.23;4.50;;;11.10;1.00;;;;;;5062604;28;20245;-82
2023/11/14 03:57:32;;;;;;;15.43;4.00;;;11.20;1.00;;;;;;5066796;28;20681;-85
2023/11/14 03:59:59;;;;;;;16.70;4.30;;;11.20;1.00;;;;;;5068524;28;20206;-83
2023/11/14 04:02:27;;;;;;;14.23;3.33;;;11.30;1.00;;;;;;5055576;28;20197;-83
2023/11/14 04:04:54;;;;;;;11.20;4.00;;;11.20;1.00;;;;;;5055904;28;20260;-83
2023/11/14 04:07:21;;;;;;;17.13;3.93;;;11.20;1.00;;;;;;5055270;28;20230;-86
2023/11/14 04:09:49;;;;;;;22.43;6.20;;;11.40;1.00;;;;;;5057587;28;20298;-87
2023/11/14 04:12:15;;;;;;;18.93;5.10;;;11.30;1.00;;;;;;5072167;28;20245;-85
2023/11/14 04:14:42;;;;;;;18.17;3.90;;;11.30;1.00;;;;;;5075485;28;20206;-83
2023/11/14 04:17:09;;;;;;;20.87;4.70;;;11.10;99.90;;;;;;5075183;28;20244;-86
2023/11/14 04:19:36;;;;;;;16.83;3.90;;;11.10;99.90;;;;;;5075399;28;20198;-84
2023/11/14 04:22:03;;;;;;;21.57;4.93;;;11.20;99.90;;;;;;5075280;28;20210;-84
2023/11/14 04:24:31;;;;;;;16.30;3.90;;;11.10;1.00;;;;;;5075564;28;20562;-82
2023/11/14 04:26:59;;;;;;;16.77;4.20;;;11.10;1.00;;;;;;5075201;28;20280;-85
2023/11/14 04:29:26;;;;;;;19.57;5.03;;;11.00;1.00;;;;;;5078129;28;20206;-83
2023/11/14 04:31:53;;;;;;;18.77;5.43;;;11.00;1.00;;;;;;5077218;28;20623;-84
2023/11/14 04:34:20;;;;;;;21.77;4.63;;;11.00;1.00;;;;;;5076282;28;20198;-86
2023/11/14 04:36:47;;;;;;;19.07;4.50;;;11.20;99.90;;;;;;5076278;28;20230;-85
2023/11/14 04:39:14;;;;;;;22.67;4.80;;;11.20;1.00;;;;;;5075898;28;20190;-85
2023/11/14 04:41:42;;;;;;;17.13;4.37;;;11.20;99.90;;;;;;5076564;28;20739;-85
2023/11/14 04:44:10;;;;;;;16.77;4.77;;;11.20;99.90;;;;;;5074644;28;20278;-84
2023/11/14 04:46:37;;;;;;;19.83;5.20;;;11.20;99.90;;;;;;5074861;28;20222;-81
2023/11/14 04:49:07;;;;;;;20.20;4.90;;;11.20;99.90;;;;;;5074758;28;20288;-86
2023/11/14 04:51:33;;;;;;;17.47;4.73;;;11.20;99.90;;;;;;5055357;28;20203;-85
2023/11/14 04:54:00;;;;;;;15.63;4.33;;;11.20;99.90;;;;;;5054768;28;20210;-84
2023/11/14 04:56:27;;;;;;;15.93;4.40;;;11.20;99.90;;;;;;5054913;28;20757;-84
2023/11/14 04:58:54;;;;;;;21.23;5.03;;;11.20;99.90;;;;;;5054903;28;20199;-86
2023/11/14 05:01:22;;;;;;;16.80;4.93;;;11.40;99.90;;;;;;5054259;28;20316;-86
2023/11/14 05:03:50;;;;;;;19.80;4.47;;;11.30;99.90;;;;;;5055301;28;20202;-85
2023/11/14 05:06:16;;;;;;;20.93;5.73;;;11.20;99.90;;;;;;5055131;28;20309;-86
2023/11/14 05:08:43;;;;;;;13.47;4.13;;;11.20;99.90;;;;;;5056726;28;20213;-87
2023/11/14 05:11:10;;;;;;;23.53;5.07;;;11.30;99.90;;;;;;5056616;28;20210;-86
2023/11/14 05:13:38;;;;;;;21.10;5.33;;;11.30;99.90;;;;;;5057480;28;20683;-85
2023/11/14 05:16:05;;;;;;;17.23;4.63;;;11.30;99.90;;;;;;5056683;28;20641;-84
2023/11/14 05:18:33;;;;;;;18.47;4.57;;;11.30;99.90;;;;;;5068031;28;20298;-85
2023/11/14 05:21:00;;;;;;;14.13;3.87;;;11.20;1.00;;;;;;5076811;28;20674;-83
2023/11/14 05:23:27;;;;;;;17.43;3.83;;;11.20;1.00;;;;;;5076004;28;20206;-86
2023/11/14 05:25:54;;;;;;;21.83;4.80;;;11.20;1.00;;;;;;5074803;28;20233;-85
2023/11/14 05:28:21;;;;;;;18.67;4.50;;;11.10;57.70;;;;;;5073714;28;20214;-84
2023/11/14 05:30:48;;;;;;;21.03;4.77;;;11.00;99.90;;;;;;5075550;28;20753;-86
2023/11/14 05:33:16;;;;;;;19.60;5.60;;;10.90;1.00;;;;;;5075955;28;20210;-86
2023/11/14 05:35:44;;;;;;;17.70;5.20;;;10.90;1.00;;;;;;5077138;28;20205;-82
2023/11/14 05:38:11;;;;;;;25.03;5.97;;;10.90;1.00;;;;;;5075874;28;20285;-84
2023/11/14 05:40:37;;;;;;;21.77;5.53;;;10.80;99.90;;;;;;5075084;28;20203;-84
2023/11/14 05:43:04;;;;;;;19.23;4.90;;;10.80;1.00;;;;;;5076237;28;20210;-87
2023/11/14 05:45:31;;;;;;;17.90;5.70;;;11.00;1.00;;;;;;5076614;28;20206;-85
2023/11/14 05:47:58;;;;;;;20.63;5.17;;;10.80;99.90;;;;;;5075769;28;20222;-85
2023/11/14 05:50:25;;;;;;;18.53;5.80;;;10.80;99.90;;;;;;5077634;28;20214;-85
2023/11/14 05:52:53;;;;;;;15.47;5.60;;;10.80;99.90;;;;;;5078768;28;20209;-85
2023/11/14 05:55:20;;;;;;;14.37;4.70;;;10.70;99.90;;;;;;5079895;28;20210;-85
2023/11/14 05:57:47;;;;;;;22.07;5.07;;;10.90;1.00;;;;;;5079774;28;20224;-86
2023/11/14 06:00:15;;;;;;;15.77;4.17;;;11.00;99.90;;;;;;5079681;28;20218;-82
2023/11/14 06:02:42;;;;;;;16.00;4.50;;;11.10;99.90;;;;;;5080540;28;20203;-85
2023/11/14 06:05:09;;;;;;;19.07;5.60;;;11.10;99.90;;;;;;5080188;28;20202;-86
2023/11/14 06:07:36;;;;;;;17.10;5.60;;;11.10;26.00;;;;;;5079873;28;20717;-85
2023/11/14 06:10:07;;;;;;;17.17;4.57;;;11.10;1.00;;;;;;5079466;28;20237;-86
2023/11/14 06:12:37;;;;;;;19.43;5.00;;;11.10;1.00;;;;;;5080136;28;20202;-85
2023/11/14 06:15:04;;;;;;;12.57;4.30;;;11.10;1.00;;;;;;5079807;28;20202;-86
2023/11/14 06:17:31;;;;;;;19.63;4.60;;;11.20;1.00;;;;;;5080502;28;20225;-86
2023/11/14 06:19:58;;;;;;;16.53;4.57;;;11.10;1.00;;;;;;5079835;28;20200;-86
2023/11/14 06:22:25;;;;;;;15.00;4.00;;;11.10;1.00;;;;;;5080686;28;20265;-85
2023/11/14 06:24:52;;;;;;;16.57;4.60;;;11.00;1.00;;;;;;5080372;28;20285;-84
2023/11/14 06:27:20;;;;;;;19.23;4.73;;;11.20;99.90;;;;;;5078474;28;20314;-85
2023/11/14 06:29:47;;;;;;;13.20;4.10;;;11.00;1.00;;;;;;5079614;28;20584;-86
2023/11/14 06:32:14;;;;;;;16.10;4.20;;;11.00;99.90;;;;;;5079348;28;20202;-85
2023/11/14 06:34:41;;;;;;;19.90;4.90;;;11.10;99.90;;;;;;5079856;28;20198;-87
2023/11/14 06:37:09;;;;;;;15.00;3.80;;;11.10;99.90;;;;;;5079054;28;20373;-84
2023/11/14 06:39:36;;;;;;;16.23;4.37;;;11.10;99.90;;;;;;5077899;28;20190;-86
2023/11/14 06:42:03;;;;;;;13.83;4.40;;;11.20;99.90;;;;;;5077761;28;20229;-86
2023/11/14 06:44:31;;;;;;;18.57;4.43;;;11.30;99.90;;;;;;5077832;28;20680;-84
2023/11/14 06:46:57;;;;;;;16.90;4.33;;;11.30;99.90;;;;;;5076579;28;20218;-84
2023/11/14 06:49:24;;;;;;;16.07;4.27;;;11.30;99.90;;;;;;5076642;28;20201;-85
2023/11/14 06:51:51;;;;;;;16.33;3.93;;;11.40;32.80;;;;;;5077548;28;20662;-87
2023/11/14 06:54:18;;;;;;;11.23;3.63;;;11.50;30.00;;;;;;5063932;28;20202;-85
2023/11/14 06:56:45;;;;;;;11.77;4.00;;;11.40;53.20;;;;;;5056850;28;20265;-85
2023/11/14 06:59:12;;;;;;;12.17;3.50;;;11.40;23.00;;;;;;5061926;28;20198;-86
2023/11/14 07:01:40;;;;;;;10.50;3.47;;;11.40;24.50;;;;;;5078424;28;20214;-85
2023/11/14 07:04:09;;;;;;;13.77;4.10;;;11.40;68.40;;;;;;5079060;28;20207;-85
2023/11/14 07:06:36;;;;;;;13.00;3.83;;;11.40;99.90;;;;;;5078761;28;20226;-85
2023/11/14 07:09:03;;;;;;;16.20;4.43;;;11.40;99.90;;;;;;5077724;28;20237;-84
2023/11/14 07:11:30;;;;;;;14.80;4.37;;;11.40;99.90;;;;;;5076674;28;20213;-87
2023/11/14 07:13:57;;;;;;;12.47;4.20;;;11.40;99.90;;;;;;5076122;28;20293;-86
2023/11/14 07:16:23;;;;;;;22.00;4.80;;;11.50;99.90;;;;;;5077189;28;20309;-85
2023/11/14 07:18:52;;;;;;;16.57;3.87;;;11.50;99.90;;;;;;5078019;28;20208;-85
2023/11/14 07:21:19;;;;;;;14.90;4.00;;;11.40;99.90;;;;;;5070216;28;20202;-85
2023/11/14 07:23:45;;;;;;;15.27;4.80;;;11.40;99.90;;;;;;5073245;28;20642;-84
2023/11/14 07:26:13;;;;;;;17.23;4.20;;;11.40;99.90;;;;;;5058019;28;20230;-86
2023/11/14 07:28:41;;;;;;;12.93;4.10;;;11.40;99.90;;;;;;5057462;28;20304;-85
2023/11/14 07:31:08;;;;;;;12.50;4.03;;;11.40;99.90;;;;;;5056649;28;20732;-86
2023/11/14 07:33:34;;;;;;;14.57;4.17;;;11.30;99.90;;;;;;5056465;28;20210;-87
2023/11/14 07:36:03;;;;;;;15.37;4.53;;;11.30;99.90;;;;;;5057543;28;20233;-86
2023/11/14 07:38:30;;;;;;;13.03;3.47;;;11.30;99.90;;;;;;5058134;28;20289;-85
2023/11/14 07:40:56;;;;;;;20.83;4.50;;;11.30;99.90;;;;;;5069771;28;20258;-87
2023/11/14 07:43:24;;;;;;;17.97;4.70;;;11.30;99.90;;;;;;5098271;28;20201;-85
2023/11/14 07:45:52;;;;;;;15.17;4.97;;;11.20;1.00;;;;;;5097875;28;20623;-86
2023/11/14 07:48:19;;;;;;;20.97;5.60;;;11.40;99.90;;;;;;5098862;28;20202;-86
2023/11/14 07:50:46;;;;;;;21.07;4.87;;;11.50;99.90;;;;;;5098470;28;20232;-85
2023/11/14 07:53:16;;;;;;;18.30;5.13;;;11.40;99.90;;;;;;5098111;28;20262;-84
2023/11/14 07:55:43;;;;;;;16.10;4.43;;;11.60;99.90;;;;;;5097106;28;20210;-86
2023/11/14 07:58:09;;;;;;;16.63;4.10;;;11.60;99.90;;;;;;5097533;28;20202;-87
2023/11/14 08:00:36;;;;;;;20.10;5.37;;;11.70;99.90;;;;;;5098166;28;20211;-87
2023/11/14 08:03:04;;;;;;;18.87;4.50;;;11.70;99.90;;;;;;5098080;28;20668;-86
2023/11/14 08:05:32;;;;;;;20.00;4.60;;;11.70;99.90;;;;;;5086914;28;20210;-87
2023/11/14 08:07:58;;;;;;;16.60;4.57;;;11.80;52.40;;;;;;5077073;28;20225;-85
2023/11/14 08:10:26;;;;;;;19.00;5.27;;;11.80;74.00;;;;;;5076088;28;20217;-86
2023/11/14 08:12:53;;;;;;;19.63;4.63;;;11.80;83.90;;;;;;5076959;28;20238;-86
2023/11/14 08:15:21;;;;;;;14.53;4.03;;;11.80;20.20;;;;;;5072323;28;20191;-86
2023/11/14 08:17:48;;;;;;;17.57;5.03;;;12.00;1.00;;;;;;5057472;28;20251;-86
2023/11/14 08:20:15;;;;;;;16.13;4.67;;;12.00;1.00;;;;;;5058450;28;20206;-85
2023/11/14 08:22:42;;;;;;;16.77;4.30;;;12.00;1.00;;;;;;5062457;28;20218;-86
2023/11/14 08:25:10;;;;;;;18.90;5.07;;;12.10;1.00;;;;;;5076274;28;20190;-83
2023/11/14 08:27:39;;;;;;;18.73;5.33;;;12.00;1.00;;;;;;5075316;28;20222;-86
2023/11/14 08:30:07;;;;;;;14.03;4.07;;;12.00;1.00;;;;;;5076460;28;20198;-85
2023/11/14 08:32:34;;;;;;;19.47;4.40;;;12.00;1.00;;;;;;5055991;28;20206;-83
2023/11/14 08:35:03;;;;;;;19.83;5.53;;;12.00;1.00;;;;;;5055173;28;20586;-86
2023/11/14 08:37:30;;;;;;;17.63;5.47;;;12.00;1.00;;;;;;5054882;28;20215;-84
2023/11/14 08:39:57;;;;;;;14.63;4.37;;;12.10;1.00;;;;;;5055344;28;20205;-87
2023/11/14 08:42:24;;;;;;;19.10;4.83;;;12.10;1.00;;;;;;5054961;28;20600;-85
2023/11/14 08:44:53;;;;;;;17.90;4.87;;;12.20;1.00;;;;;;5055248;28;20233;-88
2023/11/14 08:47:19;;;;;;;11.43;4.13;;;12.20;1.00;;;;;;5056319;28;20599;-87
2023/11/14 08:49:46;;;;;;;18.97;5.37;;;12.20;1.00;;;;;;5056286;28;20207;-84
2023/11/14 08:52:13;;;;;;;19.83;5.27;;;12.20;1.00;;;;;;5056122;28;20210;-85
2023/11/14 08:54:40;;;;;;;11.73;5.00;;;12.10;1.00;;;;;;5056405;28;20199;-84
2023/11/14 08:57:07;;;;;;;16.97;4.80;;;12.10;1.00;;;;;;5071663;28;20269;-85
2023/11/14 08:59:34;;;;;;;20.10;5.33;;;12.10;1.00;;;;;;5073322;28;20202;-85
2023/11/14 09:02:03;;;;;;;16.77;4.77;;;12.10;1.00;;;;;;5075837;28;20210;-85
2023/11/14 09:04:30;;;;;;;15.43;5.30;;;12.20;1.00;;;;;;5076783;28;20325;-85
2023/11/14 09:06:57;;;;;;;18.27;5.63;;;12.30;1.00;;;;;;5076054;28;20607;-84
2023/11/14 09:09:24;;;;;;;15.60;5.37;;;12.20;1.00;;;;;;5076498;28;20313;-85
2023/11/14 09:11:51;;;;;;;18.33;4.87;;;12.20;1.00;;;;;;5075714;28;20214;-86
2023/11/14 09:14:18;;;;;;;21.23;5.07;;;12.20;1.00;;;;;;5075723;28;20581;-86
2023/11/14 09:16:45;;;;;;;18.47;5.10;;;12.10;1.00;;;;;;5075762;28;20230;-86
2023/11/14 09:19:13;;;;;;;15.47;5.03;;;12.10;1.00;;;;;;5075773;28;20208;-86
2023/11/14 09:21:40;;;;;;;18.87;5.00;;;12.10;1.00;;;;;;5074153;28;20202;-85
2023/11/14 09:24:07;;;;;;;15.57;5.17;;;12.10;1.00;;;;;;5074655;28;20202;-85
2023/11/14 09:26:34;;;;;;;18.87;5.37;;;12.10;85.90;;;;;;5078719;28;20567;-85
2023/11/14 09:29:01;;;;;;;19.83;6.60;;;12.10;9.50;;;;;;5068772;28;20226;-84
2023/11/14 09:31:28;;;;;;;15.67;5.67;;;12.10;1.00;;;;;;5081313;28;20222;-82
2023/11/14 09:33:55;;;;;;;14.57;4.67;;;12.20;1.00;;;;;;5071917;28;20205;-83
2023/11/14 09:36:23;;;;;;;21.03;5.60;;;12.10;1.00;;;;;;5071467;28;20237;-83
2023/11/14 09:38:50;;;;;;;22.17;5.27;;;12.20;1.00;;;;;;5076840;28;20203;-84
2023/11/14 09:41:18;;;;;;;19.30;5.50;;;12.20;1.00;;;;;;5073249;28;20270;-83
2023/11/14 09:43:46;;;;;;;24.03;6.67;;;12.20;1.00;;;;;;5083403;28;20209;-83
2023/11/14 09:46:13;;;;;;;15.17;4.20;;;12.30;1.00;;;;;;5073906;28;20227;-82
2023/11/14 09:48:41;;;;;;;17.90;5.00;;;12.40;1.00;;;;;;5075064;28;20693;-82
2023/11/14 09:51:09;;;;;;;17.60;5.07;;;12.40;1.00;;;;;;5078781;28;20214;-82
2023/11/14 09:53:38;;;;;;;19.27;5.53;;;12.40;1.00;;;;;;5068446;28;20294;-81
2023/11/14 09:56:06;;;;;;;17.03;5.30;;;12.40;1.00;;;;;;5074555;28;20230;-81
2023/11/14 09:58:33;;;;;;;15.07;4.63;;;12.30;1.00;;;;;;5075281;28;20701;-81
2023/11/14 10:01:00;;;;;;;21.57;6.13;;;12.20;99.90;;;;;;5080363;28;20228;-82
2023/11/14 10:03:27;;;;;;;19.47;5.30;;;12.20;99.90;;;;;;5079308;28;20210;-81
2023/11/14 10:05:54;;;;;;;21.23;6.23;;;12.20;99.90;;;;;;5074234;28;20235;-82
2023/11/14 10:08:21;;;;;;;23.23;5.63;;;12.10;99.90;;;;;;5069242;28;20233;-82
2023/11/14 10:11:05;;;;;;;16.50;5.30;;;12.10;1.00;;;;;;5069869;28;20214;-82
2023/11/14 10:13:31;;;;;;;17.20;5.67;;;12.10;1.00;;;;;;5074043;28;20199;-82
2023/11/14 10:16:19;;;;;;;15.30;4.90;;;12.10;1.00;;;;;;5066081;28;20698;-82
2023/11/14 10:18:47;;;;;;;16.10;5.80;;;12.20;1.00;;;;;;5073131;28;20218;-82
2023/11/14 10:21:25;;;;;;;17.67;5.07;;;12.30;99.90;;;;;;5078128;28;20246;-83
2023/11/14 10:23:53;;;;;;;16.23;4.87;;;12.30;99.90;;;;;;5066408;28;20209;-82
2023/11/14 10:26:22;;;;;;;16.20;5.13;;;12.30;99.90;;;;;;5077017;28;20230;-83
2023/11/14 10:28:54;;;;;;;22.37;4.97;;;12.40;99.90;;;;;;5074115;28;20226;-83
2023/11/14 10:31:37;;;;;;;20.50;5.00;;;12.40;99.90;;;;;;5078533;28;20248;-82
2023/11/14 10:34:05;;;;;;;25.43;5.47;;;12.40;33.90;;;;;;5080182;28;20301;-82
2023/11/14 10:36:46;;;;;;;20.23;4.40;;;12.50;13.90;;;;;;5081631;28;20226;-83
2023/11/14 10:39:14;;;;;;;18.73;4.73;;;12.60;1.00;;;;;;5079208;28;20708;-84
2023/11/14 10:41:42;;;;;;;19.10;5.20;;;12.60;1.00;;;;;;5070304;28;20268;-84
2023/11/14 10:44:10;;;;;;;21.37;4.93;;;12.60;1.00;;;;;;5078044;28;20822;-82
2023/11/14 10:46:37;;;;;;;22.57;5.37;;;12.80;1.00;;;;;;5081663;28;20222;-82
2023/11/14 10:49:08;;;;;;;18.03;4.33;;;12.80;1.00;;;;;;5081162;28;20222;-82
2023/11/14 10:51:37;;;;;;;16.83;4.67;;;12.80;1.00;;;;;;5077316;28;20208;-83
2023/11/14 10:54:06;;;;;;;20.97;5.27;;;12.70;1.00;;;;;;5077393;28;20211;-82
2023/11/14 10:56:35;;;;;;;19.90;5.10;;;12.70;1.00;;;;;;5085374;28;20229;-82
2023/11/14 10:59:06;;;;;;;21.63;4.67;;;12.70;1.00;;;;;;5086146;28;20658;-81
2023/11/14 11:01:34;;;;;;;20.77;4.87;;;12.70;1.00;;;;;;5064527;28;20210;-82
2023/11/14 11:04:02;;;;;;;17.00;5.37;;;12.80;1.00;;;;;;5081757;28;20369;-83
2023/11/14 11:06:29;;;;;;;19.53;5.30;;;13.00;1.00;;;;;;5077200;28;20673;-81
2023/11/14 11:08:56;;;;;;;18.37;4.93;;;13.40;1.00;;;;;;5075783;28;20693;-81
2023/11/14 11:11:26;;;;;;;16.53;4.87;;;13.40;1.00;;;;;;5081339;28;20216;-82
2023/11/14 11:13:53;;;;;;;19.30;5.03;;;13.20;1.00;;;;;;5073380;28;20206;-81
2023/11/14 11:16:47;;;;;;;19.63;5.10;;;13.20;1.00;;;;;;5079880;28;20228;-82
2023/11/14 11:19:24;;;;;;;16.63;4.93;;;13.10;1.00;;;;;;5078531;28;20206;-81
2023/11/14 11:22:06;;;;;;;21.30;5.63;;;13.00;1.00;;;;;;5076995;28;20206;-81
2023/11/14 11:24:33;;;;;;;19.60;5.03;;;12.90;1.00;;;;;;5079771;28;20206;-81
2023/11/14 11:27:18;;;;;;;17.33;4.57;;;13.00;1.00;;;;;;5079664;28;20705;-81
2023/11/14 11:29:54;;;;;;;17.27;4.60;;;13.00;1.00;;;;;;5074200;28;20324;-82
2023/11/14 11:32:28;;;;;;;17.80;4.60;;;13.00;1.00;;;;;;5082228;28;20202;-82
2023/11/14 11:35:22;;;;;;;12.17;3.77;;;13.00;1.00;;;;;;5064942;28;20585;-81
2023/11/14 11:37:52;;;;;;;16.13;4.50;;;12.80;1.00;;;;;;5079880;28;20254;-82
2023/11/14 11:40:25;;;;;;;17.43;4.27;;;12.70;1.00;;;;;;5081231;28;20202;-82
2023/11/14 11:42:53;;;;;;;16.80;4.90;;;12.60;1.00;;;;;;5080765;28;20293;-82
2023/11/14 11:45:33;;;;;;;13.30;3.80;;;12.50;1.00;;;;;;5070317;28;20199;-81
2023/11/14 11:48:02;;;;;;;15.37;4.20;;;12.60;1.00;;;;;;5075147;28;20222;-81
2023/11/14 11:50:29;;;;;;;17.90;5.40;;;12.60;1.00;;;;;;5077983;28;20217;-81
2023/11/14 11:53:01;;;;;;;14.20;4.50;;;12.50;1.00;;;;;;5078061;28;20202;-81
2023/11/14 11:55:28;;;;;;;12.07;4.00;;;12.50;94.20;;;;;;5075179;28;20202;-81
2023/11/14 11:58:00;;;;;;;14.13;4.30;;;12.40;97.40;;;;;;5076867;28;20242;-83
2023/11/14 12:00:28;;;;;;;15.00;4.93;;;12.40;99.90;;;;;;5073052;28;20263;-83
2023/11/14 12:02:56;;;;;;;17.27;4.27;;;12.40;99.90;;;;;;5080402;28;20200;-81
2023/11/14 12:05:26;;;;;;;17.80;5.07;;;12.70;86.40;;;;;;5077153;28;20206;-81
2023/11/14 12:07:53;;;;;;;14.43;4.33;;;12.60;13.20;;;;;;5079595;28;20237;-82
2023/11/14 12:10:20;;;;;;;17.37;4.63;;;12.60;2.40;;;;;;5067429;28;20226;-83
2023/11/14 12:12:47;;;;;;;16.70;4.70;;;12.60;56.10;;;;;;5070668;28;20211;-81
2023/11/14 12:15:17;;;;;;;14.80;5.10;;;12.50;1.00;;;;;;5068785;28;20203;-82
2023/11/14 12:17:54;;;;;;;17.50;4.63;;;12.50;1.00;;;;;;5078304;28;20218;-81
2023/11/14 12:20:23;;;;;;;18.30;4.33;;;12.40;1.00;;;;;;5078497;28;20204;-82
2023/11/14 12:22:52;;;;;;;15.20;4.07;;;12.40;1.00;;;;;;5071802;28;20274;-83
2023/11/14 12:25:20;;;;;;;12.10;3.97;;;12.40;1.00;;;;;;5078276;28;20225;-84
2023/11/14 12:27:56;;;;;;;14.13;4.20;;;12.40;1.00;;;;;;5081872;28;20214;-83
2023/11/14 12:30:24;;;;;;;16.33;4.67;;;12.40;1.00;;;;;;5070396;28;20227;-81
2023/11/14 12:33:04;;;;;;;14.77;4.90;;;12.30;99.90;;;;;;5069394;28;20794;-82
2023/11/14 12:35:44;;;;;;;14.70;4.20;;;12.30;99.90;;;;;;5078136;28;20210;-81
2023/11/14 12:38:13;;;;;;;14.60;3.97;;;12.00;1.00;;;;;;5077554;28;20213;-81
2023/11/14 12:40:39;;;;;;;15.47;3.93;;;11.90;1.00;;;;;;5070589;28;20206;-83
2023/11/14 12:43:08;;;;;;;11.90;4.07;;;11.90;1.00;;;;;;5079711;28;20202;-81
2023/11/14 12:45:45;;;;;;;11.77;4.23;;;11.80;99.90;;;;;;5076953;28;20228;-81
2023/11/14 12:48:12;;;;;;;9.53;3.70;;;11.70;99.90;;;;;;5076889;28;20658;-82